sensor_id;sensor_type;location;lat;lon;timestamp;noise_LAeq;noise_LA_min;noise_LA_max;noise_LA01;noise_LA95
67900;Laerm;54700;51.796;10.956;2023-03-24T00:00:20;50.09;27.53;65.94;;
67900;Laerm;54700;51.796;10.956;2023-03-24T00:02:50;29.61;27.67;39.78;;
67900;Laerm;54700;51.796;10.956;2023-03-24T00:05:21;30.33;27.76;40.96;;
67900;Laerm;54700;51.796;10.956;2023-03-24T00:07:49;29.98;27.93;40.32;;
67900;Laerm;54700;51.796;10.956;2023-03-24T00:10:19;29.82;27.74;39.84;;
67900;Laerm;54700;51.796;10.956;2023-03-24T00:12:55;29.85;27.73;39.84;;
67900;Laerm;54700;51.796;10.956;2023-03-24T00:15:26;30.13;27.49;40.08;;
67900;Laerm;54700;51.796;10.956;2023-03-24T00:17:58;31.69;28.00;41.39;;
67900;Laerm;54700;51.796;10.956;2023-03-24T00:20:27;31.15;28.59;40.13;;
67900;Laerm;54700;51.796;10.956;2023-03-24T00:22:55;30.83;28.73;39.20;;
67900;Laerm;54700;51.796;10.956;2023-03-24T00:25:25;47.84;30.38;63.79;;
67900;Laerm;54700;51.796;10.956;2023-03-24T00:27:58;46.12;31.16;63.51;;
67900;Laerm;54700;51.796;10.956;2023-03-24T00:30:28;34.55;31.43;47.69;;
67900;Laerm;54700;51.796;10.956;2023-03-24T00:32:56;52.00;30.62;64.98;;
67900;Laerm;54700;51.796;10.956;2023-03-24T00:35:28;34.98;30.63;55.33;;
67900;Laerm;54700;51.796;10.956;2023-03-24T00:37:58;32.25;29.92;45.46;;
67900;Laerm;54700;51.796;10.956;2023-03-24T00:40:38;34.36;30.56;41.43;;
67900;Laerm;54700;51.796;10.956;2023-03-24T00:43:15;34.07;30.35;46.19;;
67900;Laerm;54700;51.796;10.956;2023-03-24T00:45:45;32.57;28.88;44.12;;
67900;Laerm;54700;51.796;10.956;2023-03-24T00:48:13;31.35;28.43;40.53;;
67900;Laerm;54700;51.796;10.956;2023-03-24T00:50:45;55.23;30.18;68.43;;
67900;Laerm;54700;51.796;10.956;2023-03-24T00:53:16;47.54;29.47;65.02;;
67900;Laerm;54700;51.796;10.956;2023-03-24T00:55:43;43.58;29.08;61.38;;
67900;Laerm;54700;51.796;10.956;2023-03-24T00:58:15;31.79;27.98;44.89;;
67900;Laerm;54700;51.796;10.956;2023-03-24T01:00:48;50.50;27.62;66.22;;
67900;Laerm;54700;51.796;10.956;2023-03-24T01:03:25;51.14;27.96;68.94;;
67900;Laerm;54700;51.796;10.956;2023-03-24T01:06:07;34.13;28.08;45.28;;
67900;Laerm;54700;51.796;10.956;2023-03-24T01:08:39;49.48;27.90;67.04;;
67900;Laerm;54700;51.796;10.956;2023-03-24T01:11:10;31.65;28.62;42.11;;
67900;Laerm;54700;51.796;10.956;2023-03-24T01:13:40;30.54;28.24;41.85;;
67900;Laerm;54700;51.796;10.956;2023-03-24T01:16:08;31.11;28.36;46.14;;
67900;Laerm;54700;51.796;10.956;2023-03-24T01:18:35;31.45;28.71;45.55;;
67900;Laerm;54700;51.796;10.956;2023-03-24T01:21:12;31.92;28.37;44.94;;
67900;Laerm;54700;51.796;10.956;2023-03-24T01:23:46;30.82;28.28;42.00;;
67900;Laerm;54700;51.796;10.956;2023-03-24T01:26:14;32.06;28.23;54.59;;
67900;Laerm;54700;51.796;10.956;2023-03-24T01:28:41;32.33;28.67;56.62;;
67900;Laerm;54700;51.796;10.956;2023-03-24T01:31:14;34.29;28.72;51.09;;
67900;Laerm;54700;51.796;10.956;2023-03-24T01:33:42;33.09;29.04;55.11;;
67900;Laerm;54700;51.796;10.956;2023-03-24T01:36:14;32.08;29.31;41.37;;
67900;Laerm;54700;51.796;10.956;2023-03-24T01:38:44;31.60;28.93;43.37;;
67900;Laerm;54700;51.796;10.956;2023-03-24T01:41:30;31.58;28.82;44.54;;
67900;Laerm;54700;51.796;10.956;2023-03-24T01:43:59;32.52;29.09;43.19;;
67900;Laerm;54700;51.796;10.956;2023-03-24T01:46:27;31.46;27.92;41.90;;
67900;Laerm;54700;51.796;10.956;2023-03-24T01:49:19;57.03;28.81;71.57;;
67900;Laerm;54700;51.796;10.956;2023-03-24T01:52:00;30.73;28.01;46.37;;
67900;Laerm;54700;51.796;10.956;2023-03-24T01:54:34;30.32;27.70;48.50;;
67900;Laerm;54700;51.796;10.956;2023-03-24T01:57:14;32.39;28.51;48.87;;
67900;Laerm;54700;51.796;10.956;2023-03-24T01:59:55;30.55;27.96;40.33;;
67900;Laerm;54700;51.796;10.956;2023-03-24T02:02:26;30.41;27.79;40.57;;
67900;Laerm;54700;51.796;10.956;2023-03-24T02:05:04;30.12;27.62;41.14;;
67900;Laerm;54700;51.796;10.956;2023-03-24T02:08:57;29.87;27.54;42.41;;
67900;Laerm;54700;51.796;10.956;2023-03-24T02:10:50;30.44;27.85;41.56;;
67900;Laerm;54700;51.796;10.956;2023-03-24T02:13:22;29.75;27.61;40.80;;
67900;Laerm;54700;51.796;10.956;2023-03-24T02:15:59;30.30;27.65;41.13;;
67900;Laerm;54700;51.796;10.956;2023-03-24T02:18:35;32.43;27.28;46.66;;
67900;Laerm;54700;51.796;10.956;2023-03-24T02:21:46;30.15;27.67;44.36;;
67900;Laerm;54700;51.796;10.956;2023-03-24T02:27:52;29.77;27.77;40.41;;
67900;Laerm;54700;51.796;10.956;2023-03-24T02:30:40;53.20;27.61;69.62;;
67900;Laerm;54700;51.796;10.956;2023-03-24T02:33:28;29.98;27.53;46.00;;
67900;Laerm;54700;51.796;10.956;2023-03-24T02:36:38;29.63;27.48;43.05;;
67900;Laerm;54700;51.796;10.956;2023-03-24T02:42:05;51.17;28.20;65.67;;
67900;Laerm;54700;51.796;10.956;2023-03-24T02:44:41;30.25;27.94;45.38;;
67900;Laerm;54700;51.796;10.956;2023-03-24T02:47:15;57.79;27.85;75.71;;
67900;Laerm;54700;51.796;10.956;2023-03-24T02:49:50;29.79;27.63;41.14;;
67900;Laerm;54700;51.796;10.956;2023-03-24T02:52:29;30.15;27.56;44.05;;
67900;Laerm;54700;51.796;10.956;2023-03-24T02:55:02;34.66;27.90;50.17;;
67900;Laerm;54700;51.796;10.956;2023-03-24T02:57:39;31.02;28.02;44.82;;
67900;Laerm;54700;51.796;10.956;2023-03-24T03:00:12;52.77;28.73;69.79;;
67900;Laerm;54700;51.796;10.956;2023-03-24T03:02:46;35.69;27.75;63.41;;
67900;Laerm;54700;51.796;10.956;2023-03-24T03:05:23;50.61;28.09;66.22;;
67900;Laerm;54700;51.796;10.956;2023-03-24T03:08:06;50.42;28.44;65.65;;
67900;Laerm;54700;51.796;10.956;2023-03-24T03:10:43;53.40;28.77;71.34;;
67900;Laerm;54700;51.796;10.956;2023-03-24T03:13:19;54.66;28.45;69.99;;
67900;Laerm;54700;51.796;10.956;2023-03-24T03:15:52;32.53;27.69;44.13;;
67900;Laerm;54700;51.796;10.956;2023-03-24T03:18:22;32.77;28.01;47.08;;
67900;Laerm;54700;51.796;10.956;2023-03-24T03:21:00;50.69;28.30;65.42;;
67900;Laerm;54700;51.796;10.956;2023-03-24T03:23:34;33.38;28.70;45.67;;
67900;Laerm;54700;51.796;10.956;2023-03-24T03:26:06;52.36;28.57;68.30;;
67900;Laerm;54700;51.796;10.956;2023-03-24T03:28:40;59.13;28.48;71.98;;
67900;Laerm;54700;51.796;10.956;2023-03-24T03:31:20;56.12;28.87;68.00;;
67900;Laerm;54700;51.796;10.956;2023-03-24T03:34:07;51.29;29.93;69.00;;
67900;Laerm;54700;51.796;10.956;2023-03-24T03:36:52;54.03;29.16;70.86;;
67900;Laerm;54700;51.796;10.956;2023-03-24T03:39:29;50.07;29.38;66.25;;
67900;Laerm;54700;51.796;10.956;2023-03-24T03:41:58;51.83;28.98;68.94;;
67900;Laerm;54700;51.796;10.956;2023-03-24T03:44:27;53.64;29.12;66.85;;
67900;Laerm;54700;51.796;10.956;2023-03-24T03:46:54;54.46;30.70;69.79;;
67900;Laerm;54700;51.796;10.956;2023-03-24T03:49:24;57.72;29.90;71.76;;
67900;Laerm;54700;51.796;10.956;2023-03-24T03:51:51;42.75;29.15;58.43;;
67900;Laerm;54700;51.796;10.956;2023-03-24T03:54:24;35.10;29.68;51.59;;
67900;Laerm;54700;51.796;10.956;2023-03-24T03:56:54;50.38;29.43;64.39;;
67900;Laerm;54700;51.796;10.956;2023-03-24T03:59:25;58.81;29.53;72.03;;
67900;Laerm;54700;51.796;10.956;2023-03-24T04:01:52;52.46;29.95;68.39;;
67900;Laerm;54700;51.796;10.956;2023-03-24T04:04:34;58.53;30.60;69.89;;
67900;Laerm;54700;51.796;10.956;2023-03-24T04:07:11;58.54;29.07;72.19;;
67900;Laerm;54700;51.796;10.956;2023-03-24T04:09:53;58.29;31.09;70.92;;
67900;Laerm;54700;51.796;10.956;2023-03-24T04:12:45;56.30;30.73;71.20;;
67900;Laerm;54700;51.796;10.956;2023-03-24T04:15:28;54.72;31.23;67.63;;
67900;Laerm;54700;51.796;10.956;2023-03-24T04:18:14;50.98;31.74;65.63;;
67900;Laerm;54700;51.796;10.956;2023-03-24T04:20:57;60.63;34.02;71.24;;
67900;Laerm;54700;51.796;10.956;2023-03-24T04:23:36;59.95;34.79;71.60;;
67900;Laerm;54700;51.796;10.956;2023-03-24T04:26:26;56.98;32.47;68.51;;
67900;Laerm;54700;51.796;10.956;2023-03-24T04:29:15;57.18;34.19;70.41;;
67900;Laerm;54700;51.796;10.956;2023-03-24T04:31:58;58.78;33.30;71.63;;
67900;Laerm;54700;51.796;10.956;2023-03-24T04:34:31;56.70;32.43;68.52;;
67900;Laerm;54700;51.796;10.956;2023-03-24T04:37:11;58.50;32.82;72.19;;
67900;Laerm;54700;51.796;10.956;2023-03-24T04:39:45;56.44;33.42;72.06;;
67900;Laerm;54700;51.796;10.956;2023-03-24T04:42:18;59.98;34.77;72.19;;
67900;Laerm;54700;51.796;10.956;2023-03-24T04:44:58;61.14;34.27;74.38;;
67900;Laerm;54700;51.796;10.956;2023-03-24T04:47:42;57.63;33.80;69.21;;
67900;Laerm;54700;51.796;10.956;2023-03-24T04:50:30;61.00;35.11;71.94;;
67900;Laerm;54700;51.796;10.956;2023-03-24T04:53:01;59.58;33.19;72.38;;
67900;Laerm;54700;51.796;10.956;2023-03-24T04:55:43;59.85;32.61;73.97;;
67900;Laerm;54700;51.796;10.956;2023-03-24T04:58:21;61.53;34.74;73.76;;
67900;Laerm;54700;51.796;10.956;2023-03-24T05:00:59;61.63;34.91;72.09;;
67900;Laerm;54700;51.796;10.956;2023-03-24T05:03:32;61.23;35.90;74.16;;
67900;Laerm;54700;51.796;10.956;2023-03-24T05:06:06;62.92;35.20;72.11;;
67900;Laerm;54700;51.796;10.956;2023-03-24T05:08:37;60.22;33.16;71.17;;
67900;Laerm;54700;51.796;10.956;2023-03-24T05:11:14;61.88;35.14;71.49;;
67900;Laerm;54700;51.796;10.956;2023-03-24T05:13:46;60.62;34.51;70.14;;
67900;Laerm;54700;51.796;10.956;2023-03-24T05:16:22;60.99;39.87;71.03;;
67900;Laerm;54700;51.796;10.956;2023-03-24T05:18:56;60.52;33.16;71.35;;
67900;Laerm;54700;51.796;10.956;2023-03-24T05:21:27;61.47;34.45;70.50;;
67900;Laerm;54700;51.796;10.956;2023-03-24T05:23:57;62.90;39.70;72.48;;
67900;Laerm;54700;51.796;10.956;2023-03-24T05:26:28;62.71;37.50;77.03;;
67900;Laerm;54700;51.796;10.956;2023-03-24T05:28:55;62.13;40.82;70.20;;
67900;Laerm;54700;51.796;10.956;2023-03-24T05:31:30;64.65;44.77;75.63;;
67900;Laerm;54700;51.796;10.956;2023-03-24T05:34:14;64.20;40.44;72.32;;
67900;Laerm;54700;51.796;10.956;2023-03-24T05:36:52;64.29;46.08;72.70;;
67900;Laerm;54700;51.796;10.956;2023-03-24T05:39:33;65.96;45.48;77.10;;
67900;Laerm;54700;51.796;10.956;2023-03-24T05:42:19;65.87;49.06;73.11;;
67900;Laerm;54700;51.796;10.956;2023-03-24T05:44:52;66.81;45.44;74.82;;
67900;Laerm;54700;51.796;10.956;2023-03-24T05:47:55;66.20;41.73;81.00;;
67900;Laerm;54700;51.796;10.956;2023-03-24T05:51:03;67.61;47.69;76.58;;
67900;Laerm;54700;51.796;10.956;2023-03-24T05:54:14;68.01;53.58;77.47;;
67900;Laerm;54700;51.796;10.956;2023-03-24T06:07:37;64.91;40.23;73.31;;
67900;Laerm;54700;51.796;10.956;2023-03-24T06:14:07;64.92;44.96;74.50;;
67900;Laerm;54700;51.796;10.956;2023-03-24T06:20:42;63.91;37.78;74.82;;
67900;Laerm;54700;51.796;10.956;2023-03-24T06:24:08;65.37;40.28;74.73;;
67900;Laerm;54700;51.796;10.956;2023-03-24T06:38:53;63.94;40.01;74.93;;
67900;Laerm;54700;51.796;10.956;2023-03-24T07:04:07;65.66;43.47;79.35;;
67900;Laerm;54700;51.796;10.956;2023-03-24T07:06:38;63.57;42.05;76.09;;
67900;Laerm;54700;51.796;10.956;2023-03-24T07:09:25;62.46;41.07;73.28;;
67900;Laerm;54700;51.796;10.956;2023-03-24T07:14:35;63.65;44.21;73.85;;
67900;Laerm;54700;51.796;10.956;2023-03-24T07:18:59;61.77;39.75;75.62;;
67900;Laerm;54700;51.796;10.956;2023-03-24T07:21:55;64.99;45.06;75.04;;
67900;Laerm;54700;51.796;10.956;2023-03-24T07:24:50;62.69;36.75;74.18;;
67900;Laerm;54700;51.796;10.956;2023-03-24T07:44:11;62.71;38.39;72.75;;
67900;Laerm;54700;51.796;10.956;2023-03-24T07:46:48;63.80;41.13;70.75;;
67900;Laerm;54700;51.796;10.956;2023-03-24T07:49:16;64.57;50.09;72.91;;
67900;Laerm;54700;51.796;10.956;2023-03-24T07:58:24;62.03;44.33;70.22;;
67900;Laerm;54700;51.796;10.956;2023-03-24T08:01:02;63.32;42.69;72.13;;
67900;Laerm;54700;51.796;10.956;2023-03-24T08:05:00;64.25;39.43;72.11;;
67900;Laerm;54700;51.796;10.956;2023-03-24T08:28:10;64.12;44.96;73.61;;
67900;Laerm;54700;51.796;10.956;2023-03-24T08:30:47;66.25;52.88;74.34;;
67900;Laerm;54700;51.796;10.956;2023-03-24T09:11:18;62.45;40.17;71.89;;
67900;Laerm;54700;51.796;10.956;2023-03-24T09:14:10;63.80;43.45;73.28;;
67900;Laerm;54700;51.796;10.956;2023-03-24T09:16:55;63.81;43.48;73.10;;
67900;Laerm;54700;51.796;10.956;2023-03-24T09:19:39;62.74;50.33;71.03;;
67900;Laerm;54700;51.796;10.956;2023-03-24T09:22:22;64.21;49.98;73.34;;
67900;Laerm;54700;51.796;10.956;2023-03-24T09:25:24;62.39;48.11;72.70;;
67900;Laerm;54700;51.796;10.956;2023-03-24T09:28:32;64.63;46.80;73.48;;
67900;Laerm;54700;51.796;10.956;2023-03-24T09:31:07;64.44;43.52;72.03;;
67900;Laerm;54700;51.796;10.956;2023-03-24T09:34:06;64.59;52.14;75.56;;
67900;Laerm;54700;51.796;10.956;2023-03-24T09:36:48;63.23;44.55;71.84;;
67900;Laerm;54700;51.796;10.956;2023-03-24T09:39:48;62.00;46.47;71.45;;
67900;Laerm;54700;51.796;10.956;2023-03-24T09:45:26;60.79;40.61;70.81;;
67900;Laerm;54700;51.796;10.956;2023-03-24T09:48:31;62.44;43.57;73.19;;
67900;Laerm;54700;51.796;10.956;2023-03-24T09:51:31;63.24;45.75;75.00;;
67900;Laerm;54700;51.796;10.956;2023-03-24T09:54:15;62.17;48.32;70.29;;
67900;Laerm;54700;51.796;10.956;2023-03-24T09:57:10;63.82;45.51;79.72;;
67900;Laerm;54700;51.796;10.956;2023-03-24T10:03:53;63.65;47.09;71.96;;
67900;Laerm;54700;51.796;10.956;2023-03-24T10:06:20;63.42;50.08;77.92;;
67900;Laerm;54700;51.796;10.956;2023-03-24T10:09:10;62.43;47.62;69.94;;
67900;Laerm;54700;51.796;10.956;2023-03-24T10:12:21;62.43;46.32;72.28;;
67900;Laerm;54700;51.796;10.956;2023-03-24T10:15:13;61.64;42.87;70.82;;
67900;Laerm;54700;51.796;10.956;2023-03-24T10:18:21;62.91;42.86;73.74;;
67900;Laerm;54700;51.796;10.956;2023-03-24T10:21:23;64.44;49.35;74.51;;
67900;Laerm;54700;51.796;10.956;2023-03-24T10:24:13;62.66;43.83;70.09;;
67900;Laerm;54700;51.796;10.956;2023-03-24T10:27:25;63.86;42.34;77.84;;
67900;Laerm;54700;51.796;10.956;2023-03-24T10:30:12;61.32;43.16;71.93;;
67900;Laerm;54700;51.796;10.956;2023-03-24T10:33:21;65.23;48.71;80.79;;
67900;Laerm;54700;51.796;10.956;2023-03-24T10:42:57;65.08;45.29;83.38;;
67900;Laerm;54700;51.796;10.956;2023-03-24T10:46:01;61.90;49.59;71.02;;
67900;Laerm;54700;51.796;10.956;2023-03-24T10:58:25;64.00;45.50;76.55;;
67900;Laerm;54700;51.796;10.956;2023-03-24T11:07:27;63.21;44.69;72.48;;
67900;Laerm;54700;51.796;10.956;2023-03-24T11:10:23;63.02;45.39;72.41;;
67900;Laerm;54700;51.796;10.956;2023-03-24T11:16:38;61.77;41.75;74.34;;
67900;Laerm;54700;51.796;10.956;2023-03-24T11:19:21;62.02;44.72;70.73;;
67900;Laerm;54700;51.796;10.956;2023-03-24T11:21:58;62.25;40.50;70.84;;
67900;Laerm;54700;51.796;10.956;2023-03-24T11:24:54;62.48;44.28;70.40;;
67900;Laerm;54700;51.796;10.956;2023-03-24T11:27:40;62.92;38.06;78.22;;
67900;Laerm;54700;51.796;10.956;2023-03-24T11:30:25;63.56;41.55;73.05;;
67900;Laerm;54700;51.796;10.956;2023-03-24T11:33:22;62.60;42.19;74.56;;
67900;Laerm;54700;51.796;10.956;2023-03-24T11:39:16;62.11;41.53;70.91;;
67900;Laerm;54700;51.796;10.956;2023-03-24T11:42:12;61.77;39.57;71.18;;
67900;Laerm;54700;51.796;10.956;2023-03-24T11:45:56;61.86;38.24;74.02;;
67900;Laerm;54700;51.796;10.956;2023-03-24T11:48:29;63.74;40.36;77.27;;
67900;Laerm;54700;51.796;10.956;2023-03-24T11:51:11;60.54;42.93;72.18;;
67900;Laerm;54700;51.796;10.956;2023-03-24T11:54:17;63.17;43.65;75.94;;
67900;Laerm;54700;51.796;10.956;2023-03-24T11:56:59;62.14;43.48;70.05;;
67900;Laerm;54700;51.796;10.956;2023-03-24T11:59:45;62.69;39.79;73.22;;
67900;Laerm;54700;51.796;10.956;2023-03-24T12:02:21;63.98;51.46;71.11;;
67900;Laerm;54700;51.796;10.956;2023-03-24T12:05:10;62.51;45.92;70.94;;
67900;Laerm;54700;51.796;10.956;2023-03-24T12:08:11;63.13;45.39;73.00;;
67900;Laerm;54700;51.796;10.956;2023-03-24T12:13:04;61.53;42.62;68.77;;
67900;Laerm;54700;51.796;10.956;2023-03-24T12:14:06;64.19;53.46;76.94;;
67900;Laerm;54700;51.796;10.956;2023-03-24T12:16:55;63.83;49.00;73.59;;
67900;Laerm;54700;51.796;10.956;2023-03-24T12:22:48;61.41;44.26;75.08;;
67900;Laerm;54700;51.796;10.956;2023-03-24T12:28:46;63.36;51.60;76.05;;
67900;Laerm;54700;51.796;10.956;2023-03-24T12:34:54;64.05;46.00;80.52;;
67900;Laerm;54700;51.796;10.956;2023-03-24T12:37:33;62.81;49.36;72.32;;
67900;Laerm;54700;51.796;10.956;2023-03-24T12:40:26;63.32;43.76;83.16;;
67900;Laerm;54700;51.796;10.956;2023-03-24T12:43:10;63.56;46.19;82.16;;
67900;Laerm;54700;51.796;10.956;2023-03-24T12:45:46;63.83;49.24;80.45;;
67900;Laerm;54700;51.796;10.956;2023-03-24T12:48:34;65.56;46.80;80.93;;
67900;Laerm;54700;51.796;10.956;2023-03-24T12:51:29;65.44;49.90;79.15;;
67900;Laerm;54700;51.796;10.956;2023-03-24T12:54:11;61.55;37.51;71.16;;
67900;Laerm;54700;51.796;10.956;2023-03-24T12:56:47;64.30;49.37;75.81;;
67900;Laerm;54700;51.796;10.956;2023-03-24T12:59:25;63.23;37.77;78.13;;
67900;Laerm;54700;51.796;10.956;2023-03-24T13:02:03;65.90;45.26;75.78;;
67900;Laerm;54700;51.796;10.956;2023-03-24T13:04:37;64.09;45.53;82.25;;
67900;Laerm;54700;51.796;10.956;2023-03-24T13:07:10;62.78;42.92;75.14;;
67900;Laerm;54700;51.796;10.956;2023-03-24T13:09:45;64.24;43.45;79.72;;
67900;Laerm;54700;51.796;10.956;2023-03-24T13:12:18;62.15;40.86;75.29;;
67900;Laerm;54700;51.796;10.956;2023-03-24T13:15:01;63.13;43.35;70.82;;
67900;Laerm;54700;51.796;10.956;2023-03-24T13:17:35;63.02;41.05;72.84;;
67900;Laerm;54700;51.796;10.956;2023-03-24T13:20:13;61.38;42.86;69.93;;
67900;Laerm;54700;51.796;10.956;2023-03-24T13:22:42;62.59;44.92;71.09;;
67900;Laerm;54700;51.796;10.956;2023-03-24T13:25:21;63.54;47.33;74.60;;
67900;Laerm;54700;51.796;10.956;2023-03-24T13:27:58;62.57;40.74;78.11;;
67900;Laerm;54700;51.796;10.956;2023-03-24T13:30:31;66.82;44.24;85.91;;
67900;Laerm;54700;51.796;10.956;2023-03-24T13:33:02;62.75;42.31;73.37;;
67900;Laerm;54700;51.796;10.956;2023-03-24T13:35:44;62.86;48.43;72.40;;
67900;Laerm;54700;51.796;10.956;2023-03-24T13:38:22;60.39;43.57;68.55;;
67900;Laerm;54700;51.796;10.956;2023-03-24T13:40:59;62.98;45.63;70.25;;
67900;Laerm;54700;51.796;10.956;2023-03-24T13:43:30;64.01;47.25;70.00;;
67900;Laerm;54700;51.796;10.956;2023-03-24T13:46:03;63.32;46.55;77.34;;
67900;Laerm;54700;51.796;10.956;2023-03-24T13:48:35;63.47;42.38;76.33;;
67900;Laerm;54700;51.796;10.956;2023-03-24T13:51:06;61.03;41.76;68.78;;
67900;Laerm;54700;51.796;10.956;2023-03-24T13:53:47;61.80;45.69;69.18;;
67900;Laerm;54700;51.796;10.956;2023-03-24T13:56:23;63.97;48.94;75.31;;
67900;Laerm;54700;51.796;10.956;2023-03-24T13:59:22;63.83;52.78;71.11;;
67900;Laerm;54700;51.796;10.956;2023-03-24T14:02:23;63.15;45.54;73.20;;
67900;Laerm;54700;51.796;10.956;2023-03-24T14:05:12;63.22;46.15;72.80;;
67900;Laerm;54700;51.796;10.956;2023-03-24T14:08:13;63.46;47.43;74.43;;
67900;Laerm;54700;51.796;10.956;2023-03-24T14:10:49;62.87;42.45;71.05;;
67900;Laerm;54700;51.796;10.956;2023-03-24T14:13:33;63.34;41.59;75.81;;
67900;Laerm;54700;51.796;10.956;2023-03-24T14:19:17;63.80;48.25;72.67;;
67900;Laerm;54700;51.796;10.956;2023-03-24T14:21:44;63.46;47.17;77.90;;
67900;Laerm;54700;51.796;10.956;2023-03-24T14:24:25;65.06;52.42;78.34;;
67900;Laerm;54700;51.796;10.956;2023-03-24T14:26:55;63.06;42.54;74.63;;
67900;Laerm;54700;51.796;10.956;2023-03-24T14:29:37;62.57;46.02;73.49;;
67900;Laerm;54700;51.796;10.956;2023-03-24T14:32:05;63.26;48.54;72.37;;
67900;Laerm;54700;51.796;10.956;2023-03-24T14:34:33;61.57;44.17;72.28;;
67900;Laerm;54700;51.796;10.956;2023-03-24T14:37:03;63.77;51.57;70.76;;
67900;Laerm;54700;51.796;10.956;2023-03-24T14:39:38;61.36;42.59;69.63;;
67900;Laerm;54700;51.796;10.956;2023-03-24T14:42:53;62.36;43.57;70.13;;
67900;Laerm;54700;51.796;10.956;2023-03-24T14:45:39;62.19;47.47;74.28;;
67900;Laerm;54700;51.796;10.956;2023-03-24T14:48:22;61.19;44.86;72.55;;
67900;Laerm;54700;51.796;10.956;2023-03-24T14:53:34;62.44;46.63;69.56;;
67900;Laerm;54700;51.796;10.956;2023-03-24T14:56:05;61.71;43.03;70.88;;
67900;Laerm;54700;51.796;10.956;2023-03-24T14:58:38;62.49;46.55;69.69;;
67900;Laerm;54700;51.796;10.956;2023-03-24T15:01:09;60.15;41.40;68.85;;
67900;Laerm;54700;51.796;10.956;2023-03-24T15:03:41;62.64;44.82;72.90;;
67900;Laerm;54700;51.796;10.956;2023-03-24T15:06:16;62.81;40.56;71.66;;
67900;Laerm;54700;51.796;10.956;2023-03-24T15:08:48;62.62;41.98;72.37;;
67900;Laerm;54700;51.796;10.956;2023-03-24T15:11:18;60.69;43.48;69.27;;
67900;Laerm;54700;51.796;10.956;2023-03-24T15:13:49;63.93;42.00;70.83;;
67900;Laerm;54700;51.796;10.956;2023-03-24T15:16:19;61.03;43.50;70.36;;
67900;Laerm;54700;51.796;10.956;2023-03-24T15:18:48;62.55;44.36;71.50;;
67900;Laerm;54700;51.796;10.956;2023-03-24T15:21:23;62.63;44.34;70.25;;
67900;Laerm;54700;51.796;10.956;2023-03-24T15:23:50;63.42;47.37;70.71;;
67900;Laerm;54700;51.796;10.956;2023-03-24T15:26:19;62.30;43.45;72.29;;
67900;Laerm;54700;51.796;10.956;2023-03-24T15:29:05;63.95;45.92;75.83;;
67900;Laerm;54700;51.796;10.956;2023-03-24T15:31:34;64.25;48.01;71.61;;
67900;Laerm;54700;51.796;10.956;2023-03-24T15:34:24;61.98;43.58;78.36;;
67900;Laerm;54700;51.796;10.956;2023-03-24T15:36:53;61.64;45.66;71.46;;
67900;Laerm;54700;51.796;10.956;2023-03-24T15:39:28;61.69;45.27;74.37;;
67900;Laerm;54700;51.796;10.956;2023-03-24T15:41:55;63.47;49.40;80.10;;
67900;Laerm;54700;51.796;10.956;2023-03-24T15:44:26;60.29;41.88;70.27;;
67900;Laerm;54700;51.796;10.956;2023-03-24T15:46:57;63.73;45.56;75.60;;
67900;Laerm;54700;51.796;10.956;2023-03-24T15:49:26;61.19;39.80;75.23;;
67900;Laerm;54700;51.796;10.956;2023-03-24T15:51:59;63.21;46.76;72.14;;
67900;Laerm;54700;51.796;10.956;2023-03-24T15:54:30;62.33;43.23;72.08;;
67900;Laerm;54700;51.796;10.956;2023-03-24T15:57:00;63.96;45.43;79.29;;
67900;Laerm;54700;51.796;10.956;2023-03-24T15:59:34;63.99;45.54;83.19;;
67900;Laerm;54700;51.796;10.956;2023-03-24T16:02:06;61.48;45.03;68.97;;
67900;Laerm;54700;51.796;10.956;2023-03-24T16:04:47;62.60;43.78;71.86;;
67900;Laerm;54700;51.796;10.956;2023-03-24T16:07:24;64.47;42.55;78.30;;
67900;Laerm;54700;51.796;10.956;2023-03-24T16:09:55;60.62;40.23;69.26;;
67900;Laerm;54700;51.796;10.956;2023-03-24T16:12:27;61.21;42.18;71.07;;
67900;Laerm;54700;51.796;10.956;2023-03-24T16:14:56;62.24;41.88;69.65;;
67900;Laerm;54700;51.796;10.956;2023-03-24T16:17:26;63.90;44.49;76.31;;
67900;Laerm;54700;51.796;10.956;2023-03-24T16:19:53;61.66;42.41;69.30;;
67900;Laerm;54700;51.796;10.956;2023-03-24T16:22:23;60.90;45.49;67.91;;
67900;Laerm;54700;51.796;10.956;2023-03-24T16:24:52;62.55;42.86;71.20;;
67900;Laerm;54700;51.796;10.956;2023-03-24T16:27:19;62.07;44.45;69.08;;
67900;Laerm;54700;51.796;10.956;2023-03-24T16:29:55;65.39;52.52;84.64;;
67900;Laerm;54700;51.796;10.956;2023-03-24T16:32:24;60.96;40.01;72.48;;
67900;Laerm;54700;51.796;10.956;2023-03-24T16:34:51;61.41;43.17;70.23;;
67900;Laerm;54700;51.796;10.956;2023-03-24T16:40:01;60.53;42.17;70.89;;
67900;Laerm;54700;51.796;10.956;2023-03-24T16:42:31;61.91;41.11;70.15;;
67900;Laerm;54700;51.796;10.956;2023-03-24T16:44:58;62.33;47.47;70.23;;
67900;Laerm;54700;51.796;10.956;2023-03-24T16:47:27;62.65;44.91;70.03;;
67900;Laerm;54700;51.796;10.956;2023-03-24T16:49:54;61.87;45.92;72.04;;
67900;Laerm;54700;51.796;10.956;2023-03-24T16:52:21;61.01;41.61;69.33;;
67900;Laerm;54700;51.796;10.956;2023-03-24T16:54:50;61.07;38.65;70.12;;
67900;Laerm;54700;51.796;10.956;2023-03-24T16:57:18;64.88;47.45;79.19;;
67900;Laerm;54700;51.796;10.956;2023-03-24T16:59:45;60.92;39.47;73.84;;
67900;Laerm;54700;51.796;10.956;2023-03-24T17:02:18;66.49;38.27;81.80;;
67900;Laerm;54700;51.796;10.956;2023-03-24T17:04:47;61.74;41.71;69.83;;
67900;Laerm;54700;51.796;10.956;2023-03-24T17:07:14;60.77;38.99;68.73;;
67900;Laerm;54700;51.796;10.956;2023-03-24T17:09:48;61.07;41.81;70.04;;
67900;Laerm;54700;51.796;10.956;2023-03-24T17:12:15;61.27;39.43;80.54;;
67900;Laerm;54700;51.796;10.956;2023-03-24T17:14:42;62.64;41.88;71.47;;
67900;Laerm;54700;51.796;10.956;2023-03-24T17:17:10;62.87;45.66;72.72;;
67900;Laerm;54700;51.796;10.956;2023-03-24T17:19:42;59.85;42.36;69.79;;
67900;Laerm;54700;51.796;10.956;2023-03-24T17:22:11;61.63;45.77;69.27;;
67900;Laerm;54700;51.796;10.956;2023-03-24T17:24:50;64.78;51.64;73.73;;
67900;Laerm;54700;51.796;10.956;2023-03-24T17:27:22;64.33;49.05;72.91;;
67900;Laerm;54700;51.796;10.956;2023-03-24T17:30:06;62.39;42.57;69.61;;
67900;Laerm;54700;51.796;10.956;2023-03-24T17:32:34;61.77;48.38;72.49;;
67900;Laerm;54700;51.796;10.956;2023-03-24T17:35:01;60.05;39.12;69.72;;
67900;Laerm;54700;51.796;10.956;2023-03-24T17:37:39;58.51;37.85;68.47;;
67900;Laerm;54700;51.796;10.956;2023-03-24T17:40:10;60.02;40.14;71.29;;
67900;Laerm;54700;51.796;10.956;2023-03-24T17:42:39;59.35;37.46;69.53;;
67900;Laerm;54700;51.796;10.956;2023-03-24T17:45:11;59.30;39.33;69.98;;
67900;Laerm;54700;51.796;10.956;2023-03-24T17:47:40;56.92;37.00;70.32;;
67900;Laerm;54700;51.796;10.956;2023-03-24T17:50:08;59.15;37.35;70.68;;
67900;Laerm;54700;51.796;10.956;2023-03-24T17:52:39;57.31;36.48;67.79;;
67900;Laerm;54700;51.796;10.956;2023-03-24T17:55:17;60.89;37.45;71.24;;